Time;durP1;ratioP1;P1;durP2;ratioP2;P2;SDS_P1;SDS_P2;PMS_P1;PMS_P2;Temp;Humidity;BMP_temperature;BMP_pressure;BME280_temperature;BME280_humidity;BME280_pressure;Samples;Min_cycle;Max_cycle;Signal;HPM_P1;HPM_P2
2021/03/26 00:00:18;;;;;;;3.10;2.90;;;19.90;46.50;;;;;;5051422;28;20485;-68
2021/03/26 00:02:44;;;;;;;3.97;3.53;;;19.90;46.50;;;;;;5055041;28;20846;-69
2021/03/26 00:05:13;;;;;;;4.43;4.03;;;19.90;46.50;;;;;;5054860;28;20473;-70
2021/03/26 00:07:39;;;;;;;5.03;3.70;;;19.90;46.50;;;;;;5055107;28;20511;-69
2021/03/26 00:10:07;;;;;;;3.47;3.27;;;20.00;46.60;;;;;;5052361;28;20481;-69
2021/03/26 00:12:34;;;;;;;3.90;3.60;;;20.00;46.60;;;;;;5054488;28;20486;-69
2021/03/26 00:15:00;;;;;;;4.93;4.47;;;20.00;46.60;;;;;;5056151;28;20630;-68
2021/03/26 00:17:27;;;;;;;3.57;3.27;;;20.00;46.60;;;;;;5056459;28;20486;-69
2021/03/26 00:19:53;;;;;;;4.47;4.17;;;19.90;46.50;;;;;;5056878;28;20500;-69
2021/03/26 00:22:20;;;;;;;3.90;3.60;;;19.90;46.50;;;;;;5044028;28;20480;-69
2021/03/26 00:24:46;;;;;;;4.57;3.27;;;19.90;46.50;;;;;;5056100;28;20619;-69
2021/03/26 00:27:12;;;;;;;4.10;3.90;;;19.90;46.50;;;;;;5056483;28;20488;-70
2021/03/26 00:29:38;;;;;;;4.33;4.00;;;19.90;46.50;;;;;;5044971;28;20506;-68
2021/03/26 00:32:05;;;;;;;3.60;3.40;;;19.90;46.50;;;;;;5072772;28;21030;-69
2021/03/26 00:34:32;;;;;;;4.80;3.70;;;20.00;46.60;;;;;;5058573;28;21083;-69
2021/03/26 00:36:59;;;;;;;3.50;3.30;;;19.90;46.50;;;;;;5056673;28;20481;-68
2021/03/26 00:39:25;;;;;;;3.57;3.37;;;19.90;46.60;;;;;;5054890;28;20583;-69
2021/03/26 00:41:51;;;;;;;4.53;3.70;;;19.90;46.50;;;;;;5056528;28;20520;-68
2021/03/26 00:44:17;;;;;;;3.43;3.20;;;19.90;46.50;;;;;;5054509;28;20489;-69
2021/03/26 00:46:44;;;;;;;3.87;3.60;;;19.90;46.50;;;;;;5057033;28;20827;-69
2021/03/26 00:49:11;;;;;;;4.30;4.00;;;19.90;46.50;;;;;;5044848;28;20565;-69
2021/03/26 00:51:38;;;;;;;3.40;3.20;;;19.90;46.50;;;;;;5077556;28;20477;-69
2021/03/26 00:54:05;;;;;;;3.07;2.83;;;19.90;46.50;;;;;;5056601;28;20539;-68
2021/03/26 00:56:31;;;;;;;5.63;3.80;;;19.90;46.50;;;;;;5052533;28;20481;-68
2021/03/26 00:58:57;;;;;;;6.63;3.57;;;19.90;46.50;;;;;;5054344;28;20485;-69
2021/03/26 01:01:23;;;;;;;3.70;3.13;;;19.90;46.50;;;;;;5055968;28;20490;-69
2021/03/26 01:03:50;;;;;;;3.87;3.53;;;19.90;46.40;;;;;;5056054;28;20497;-68
2021/03/26 01:06:16;;;;;;;4.60;3.60;;;19.90;46.30;;;;;;5054203;28;20478;-68
2021/03/26 01:08:43;;;;;;;3.73;3.50;;;20.00;46.30;;;;;;5054213;28;20576;-69
2021/03/26 01:11:13;;;;;;;3.93;3.30;;;19.90;46.70;;;;;;5055035;28;20474;-68
2021/03/26 01:13:40;;;;;;;3.77;3.50;;;19.90;46.20;;;;;;5054978;28;20485;-68
2021/03/26 01:16:06;;;;;;;3.97;3.40;;;19.90;46.20;;;;;;5056491;28;21005;-69
2021/03/26 01:18:34;;;;;;;3.47;3.17;;;19.90;46.10;;;;;;5054035;28;20481;-69
2021/03/26 01:21:00;;;;;;;4.13;3.40;;;20.00;46.20;;;;;;5060882;28;20491;-68
2021/03/26 01:23:27;;;;;;;2.83;2.73;;;19.90;46.20;;;;;;5066046;28;20972;-69
2021/03/26 01:25:54;;;;;;;3.63;2.90;;;19.90;46.20;;;;;;5054608;28;21533;-69
2021/03/26 01:28:22;;;;;;;3.50;3.20;;;19.90;46.20;;;;;;5044799;28;20477;-69
2021/03/26 01:30:48;;;;;;;4.40;3.60;;;19.90;46.40;;;;;;5051144;28;20496;-68
2021/03/26 01:33:14;;;;;;;3.37;3.07;;;19.90;46.20;;;;;;5055664;28;20486;-69
2021/03/26 01:35:40;;;;;;;5.70;4.07;;;19.90;46.10;;;;;;5053538;28;20488;-69
2021/03/26 01:38:07;;;;;;;4.10;3.03;;;19.90;46.10;;;;;;5071012;28;20506;-69
2021/03/26 01:40:40;;;;;;;3.47;3.17;;;19.90;46.00;;;;;;5056489;28;20554;-68
2021/03/26 01:43:08;;;;;;;4.00;3.70;;;19.90;46.10;;;;;;5065826;28;20477;-69
2021/03/26 01:45:34;;;;;;;3.97;3.60;;;19.90;45.90;;;;;;5055900;28;20486;-68
2021/03/26 01:48:01;;;;;;;4.20;3.80;;;19.90;45.90;;;;;;5055233;28;20485;-68
2021/03/26 01:50:29;;;;;;;3.40;3.10;;;19.90;46.00;;;;;;5064069;28;20534;-69
2021/03/26 01:52:55;;;;;;;3.50;3.20;;;19.90;46.00;;;;;;5060970;28;20493;-68
2021/03/26 01:55:23;;;;;;;3.53;3.33;;;19.90;46.00;;;;;;5049584;28;20840;-69
2021/03/26 02:00:28;;;;;;;3.70;3.40;;;19.90;46.10;;;;;;5606986;22;20468;-69
2021/03/26 02:02:54;;;;;;;3.13;2.77;;;19.90;46.20;;;;;;4987408;28;21000;-70
2021/03/26 02:05:23;;;;;;;3.60;3.40;;;19.90;46.20;;;;;;4978609;28;21111;-70
2021/03/26 02:07:49;;;;;;;3.50;3.27;;;19.90;46.30;;;;;;4974124;28;20493;-70
2021/03/26 02:10:15;;;;;;;3.57;3.30;;;19.80;46.20;;;;;;4976254;28;20485;-71
2021/03/26 02:12:42;;;;;;;3.63;3.20;;;19.80;46.20;;;;;;4969810;28;20493;-71
2021/03/26 02:15:14;;;;;;;3.47;3.27;;;19.80;46.20;;;;;;4971301;28;20531;-69
2021/03/26 02:17:42;;;;;;;3.07;2.87;;;19.80;46.20;;;;;;4967519;28;20492;-69
2021/03/26 02:20:11;;;;;;;4.03;3.63;;;19.80;46.20;;;;;;4973660;28;20512;-70
2021/03/26 02:22:37;;;;;;;3.37;3.17;;;19.80;46.20;;;;;;4958006;28;20489;-70
2021/03/26 02:25:08;;;;;;;3.97;3.67;;;19.90;46.40;;;;;;4963153;28;20863;-69
2021/03/26 02:27:36;;;;;;;2.87;2.67;;;19.80;46.30;;;;;;4978780;28;20482;-70
2021/03/26 02:30:07;;;;;;;3.60;3.30;;;19.80;46.30;;;;;;4977501;28;20497;-70
2021/03/26 02:32:34;;;;;;;3.30;3.00;;;19.80;46.30;;;;;;4979452;28;21631;-70
2021/03/26 02:35:09;;;;;;;3.10;3.00;;;19.80;46.30;;;;;;4983200;28;20479;-69
2021/03/26 02:37:35;;;;;;;5.03;3.77;;;19.80;46.20;;;;;;4979115;28;21226;-70
2021/03/26 02:40:02;;;;;;;5.17;4.00;;;19.80;46.10;;;;;;4978691;28;20739;-69
2021/03/26 02:42:31;;;;;;;3.20;2.90;;;19.80;46.10;;;;;;4955086;28;21315;-70
2021/03/26 02:45:00;;;;;;;3.63;3.23;;;19.90;46.10;;;;;;4973225;28;20540;-70
2021/03/26 02:47:31;;;;;;;4.20;3.80;;;19.90;46.10;;;;;;4975710;28;20486;-70
2021/03/26 02:50:02;;;;;;;6.23;3.93;;;19.90;46.00;;;;;;4978247;28;20575;-70
2021/03/26 02:52:32;;;;;;;3.63;3.33;;;19.90;46.00;;;;;;4973735;28;20553;-71
2021/03/26 02:55:00;;;;;;;3.87;3.57;;;19.90;45.90;;;;;;4964168;28;20477;-70
2021/03/26 02:57:30;;;;;;;3.97;3.67;;;19.90;46.00;;;;;;4972089;28;21180;-69
2021/03/26 02:59:58;;;;;;;3.33;3.13;;;19.90;46.00;;;;;;4966015;28;20492;-70
2021/03/26 03:02:25;;;;;;;3.73;3.27;;;19.90;46.00;;;;;;4972724;28;20490;-70
2021/03/26 03:04:55;;;;;;;4.50;3.60;;;19.90;46.10;;;;;;4977432;28;20541;-71
2021/03/26 03:07:24;;;;;;;4.63;4.23;;;19.80;46.00;;;;;;4974134;28;20486;-70
2021/03/26 03:09:58;;;;;;;4.33;4.03;;;19.80;46.10;;;;;;4977697;28;20516;-70
2021/03/26 03:12:26;;;;;;;3.73;3.47;;;19.80;46.10;;;;;;4964398;28;20467;-70
2021/03/26 03:14:56;;;;;;;4.37;4.00;;;19.80;46.00;;;;;;4974484;28;20482;-70
2021/03/26 03:17:23;;;;;;;6.47;4.50;;;19.80;45.80;;;;;;4954781;28;20482;-70
2021/03/26 03:19:54;;;;;;;3.93;3.63;;;19.90;46.00;;;;;;4974953;28;20491;-71
2021/03/26 03:22:23;;;;;;;3.83;3.43;;;19.90;45.80;;;;;;4975018;28;20497;-71
2021/03/26 03:24:49;;;;;;;4.17;3.77;;;19.90;45.90;;;;;;4973539;28;20535;-70
2021/03/26 03:27:21;;;;;;;7.77;4.60;;;19.90;45.90;;;;;;4965249;28;20477;-70
2021/03/26 03:29:55;;;;;;;4.50;4.07;;;19.90;45.90;;;;;;4954739;28;20641;-70
2021/03/26 03:32:25;;;;;;;4.43;3.77;;;19.90;45.80;;;;;;4956240;28;20495;-71
2021/03/26 03:35:04;;;;;;;7.37;3.93;;;20.00;45.80;;;;;;4974667;28;20500;-70
2021/03/26 03:37:33;;;;;;;5.80;4.30;;;19.90;45.70;;;;;;4975384;28;21052;-70
2021/03/26 03:40:03;;;;;;;5.90;4.30;;;19.90;45.80;;;;;;4977385;28;20584;-71
2021/03/26 03:42:33;;;;;;;5.00;4.60;;;19.90;45.70;;;;;;4973002;28;20497;-69
2021/03/26 03:45:01;;;;;;;4.60;4.20;;;19.90;45.90;;;;;;4974026;28;20481;-70
2021/03/26 03:47:33;;;;;;;5.50;4.43;;;19.90;46.70;;;;;;4973900;28;20490;-70
2021/03/26 03:50:01;;;;;;;4.27;3.87;;;19.90;45.90;;;;;;4977377;28;20488;-70
2021/03/26 03:52:32;;;;;;;4.17;3.87;;;19.80;45.80;;;;;;4972803;28;20557;-69
2021/03/26 03:55:00;;;;;;;3.33;3.13;;;19.80;45.80;;;;;;4973369;28;20999;-70
2021/03/26 03:57:28;;;;;;;3.97;3.67;;;19.80;45.90;;;;;;4974161;28;20517;-70
2021/03/26 03:59:57;;;;;;;4.30;4.00;;;19.80;45.80;;;;;;4975326;28;20493;-70
2021/03/26 04:02:25;;;;;;;4.47;4.10;;;19.80;46.00;;;;;;4972641;28;21139;-71
2021/03/26 04:04:57;;;;;;;4.47;4.07;;;19.80;45.90;;;;;;4976971;28;20539;-70
2021/03/26 04:07:30;;;;;;;4.23;3.93;;;19.80;45.80;;;;;;4974538;28;21093;-70
2021/03/26 04:09:59;;;;;;;4.97;4.50;;;19.90;45.80;;;;;;4977993;28;20482;-70
2021/03/26 04:12:28;;;;;;;5.00;4.10;;;19.90;45.70;;;;;;4971808;28;20474;-70
2021/03/26 04:14:57;;;;;;;6.00;5.03;;;19.90;45.60;;;;;;4972609;28;20481;-70
2021/03/26 04:17:25;;;;;;;4.33;4.00;;;20.00;45.60;;;;;;4963634;28;20486;-70
2021/03/26 04:19:54;;;;;;;6.20;4.20;;;20.00;45.50;;;;;;4976710;28;20828;-70
2021/03/26 04:22:23;;;;;;;8.07;4.93;;;20.00;45.50;;;;;;4974066;28;20484;-71
2021/03/26 04:24:51;;;;;;;4.30;4.00;;;20.10;45.50;;;;;;4974011;28;20504;-71
2021/03/26 04:27:20;;;;;;;4.90;4.50;;;20.10;45.50;;;;;;4973995;28;20497;-69
2021/03/26 04:29:48;;;;;;;4.80;4.43;;;20.10;45.60;;;;;;4976348;28;20485;-69
2021/03/26 04:32:15;;;;;;;5.17;4.13;;;20.10;45.60;;;;;;4960267;28;20482;-70
2021/03/26 04:34:42;;;;;;;7.43;5.27;;;20.10;45.50;;;;;;4951085;28;20470;-69
2021/03/26 04:37:11;;;;;;;5.67;4.97;;;20.10;45.60;;;;;;4975166;28;20477;-69
2021/03/26 04:39:40;;;;;;;4.30;3.90;;;20.10;45.60;;;;;;4974714;28;20482;-70
2021/03/26 04:42:09;;;;;;;4.37;3.93;;;20.10;45.60;;;;;;4968515;28;20482;-70
2021/03/26 04:44:41;;;;;;;5.17;4.60;;;20.10;45.60;;;;;;4971074;28;25827;-70
2021/03/26 04:47:11;;;;;;;5.30;3.90;;;20.10;46.40;;;;;;4961403;28;20489;-69
2021/03/26 04:49:39;;;;;;;4.90;4.17;;;20.10;45.50;;;;;;4975018;28;20511;-70
2021/03/26 04:52:09;;;;;;;4.67;4.20;;;20.10;45.60;;;;;;4972253;28;20476;-70
2021/03/26 04:54:38;;;;;;;4.93;4.43;;;20.10;45.60;;;;;;4972834;28;20493;-71
2021/03/26 04:57:06;;;;;;;5.40;4.90;;;20.10;45.50;;;;;;4972395;28;20484;-70
2021/03/26 04:59:35;;;;;;;4.03;3.80;;;20.10;45.60;;;;;;4974846;28;20489;-68
2021/03/26 05:02:01;;;;;;;4.93;4.30;;;20.10;45.60;;;;;;4972401;28;21102;-70
2021/03/26 05:04:30;;;;;;;4.70;4.30;;;20.10;45.50;;;;;;4972536;28;20479;-70
2021/03/26 05:06:58;;;;;;;5.20;4.60;;;20.10;45.40;;;;;;4974776;28;20522;-70
2021/03/26 05:09:26;;;;;;;4.70;4.30;;;20.20;45.40;;;;;;4960132;28;20494;-69
2021/03/26 05:11:55;;;;;;;5.60;4.40;;;20.20;45.20;;;;;;4959904;28;20681;-70
2021/03/26 05:14:23;;;;;;;4.03;3.77;;;20.20;45.30;;;;;;4969542;28;20544;-70
2021/03/26 05:16:52;;;;;;;4.90;4.40;;;20.20;45.40;;;;;;4975624;28;21004;-69
2021/03/26 05:19:20;;;;;;;6.10;5.53;;;20.20;45.50;;;;;;4971726;28;20485;-69
2021/03/26 05:21:48;;;;;;;4.30;3.97;;;20.10;45.40;;;;;;4975014;28;21012;-69
2021/03/26 05:24:17;;;;;;;7.83;4.63;;;20.10;45.40;;;;;;4971994;28;20485;-69
2021/03/26 05:26:43;;;;;;;4.33;4.03;;;20.20;45.30;;;;;;4964508;28;20509;-70
2021/03/26 05:29:10;;;;;;;4.70;4.37;;;20.20;45.30;;;;;;4976067;28;20514;-69
2021/03/26 05:31:41;;;;;;;4.60;4.20;;;20.30;45.20;;;;;;4971938;28;20480;-69
2021/03/26 05:34:10;;;;;;;5.07;4.67;;;20.30;45.10;;;;;;4971693;28;20499;-70
2021/03/26 05:36:37;;;;;;;4.40;4.13;;;20.30;45.10;;;;;;4976952;28;20485;-70
2021/03/26 05:39:05;;;;;;;5.40;4.90;;;20.30;44.90;;;;;;4973526;28;20514;-70
2021/03/26 05:41:43;;;;;;;4.53;4.20;;;20.30;45.00;;;;;;4975810;28;20485;-70
2021/03/26 05:44:20;;;;;;;4.00;3.80;;;20.30;45.10;;;;;;4983605;28;20543;-71
2021/03/26 05:47:09;;;;;;;4.83;4.43;;;20.30;45.20;;;;;;4972771;28;21527;-69
2021/03/26 05:49:41;;;;;;;4.70;4.17;;;20.20;45.20;;;;;;4966408;28;20502;-69
2021/03/26 05:52:37;;;;;;;7.43;4.70;;;20.20;45.30;;;;;;4973390;28;20493;-71
2021/03/26 05:55:11;;;;;;;4.70;4.20;;;20.20;46.00;;;;;;4975844;28;20866;-70
2021/03/26 05:57:47;;;;;;;4.63;4.00;;;20.10;45.30;;;;;;4980518;28;20493;-70
2021/03/26 06:00:38;;;;;;;5.67;5.20;;;20.10;45.40;;;;;;4950443;28;20492;-70
2021/03/26 06:03:41;;;;;;;4.93;4.17;;;20.10;45.40;;;;;;4977527;28;20480;-69
2021/03/26 06:06:27;;;;;;;7.00;4.60;;;20.10;45.50;;;;;;4921768;28;20484;-70
2021/03/26 06:09:20;;;;;;;4.83;4.43;;;20.10;45.50;;;;;;4977637;28;20484;-69
2021/03/26 06:11:59;;;;;;;4.60;4.27;;;20.10;45.50;;;;;;4949794;28;20478;-70
2021/03/26 06:14:38;;;;;;;7.17;4.30;;;20.10;45.50;;;;;;4970463;28;20512;-69
2021/03/26 06:17:37;;;;;;;4.43;3.70;;;20.10;45.60;;;;;;4968665;28;20475;-69
2021/03/26 06:20:21;;;;;;;4.83;4.20;;;20.10;45.50;;;;;;4959831;28;20480;-68
2021/03/26 06:23:16;;;;;;;4.83;4.43;;;20.10;45.50;;;;;;4968101;28;20712;-67
2021/03/26 06:25:55;;;;;;;4.70;4.20;;;20.10;45.50;;;;;;4963329;28;20501;-70
2021/03/26 06:28:35;;;;;;;6.10;4.80;;;20.20;45.50;;;;;;4974338;28;20481;-70
2021/03/26 06:31:37;;;;;;;4.50;4.20;;;20.30;45.40;;;;;;4979509;28;20476;-70
2021/03/26 06:34:29;;;;;;;9.27;4.37;;;20.30;45.20;;;;;;4951682;28;20475;-69
2021/03/26 06:37:30;;;;;;;5.27;4.73;;;20.40;45.10;;;;;;4981567;28;20849;-70
2021/03/26 06:40:30;;;;;;;5.20;4.80;;;20.40;45.00;;;;;;4881109;29;20497;-70
2021/03/26 06:43:05;;;;;;;5.73;4.00;;;20.40;45.10;;;;;;4956143;28;21004;-70
2021/03/26 06:45:45;;;;;;;4.13;3.83;;;20.30;45.20;;;;;;4971227;28;20492;-69
2021/03/26 06:48:28;;;;;;;4.83;4.43;;;20.30;45.30;;;;;;4981907;28;20481;-70
2021/03/26 06:51:14;;;;;;;4.23;3.93;;;20.20;45.40;;;;;;4980724;28;20481;-70
2021/03/26 06:53:43;;;;;;;4.33;4.03;;;20.20;45.40;;;;;;4995453;28;20575;-70
2021/03/26 06:56:24;;;;;;;5.13;4.73;;;20.10;45.50;;;;;;4998703;28;20842;-70
2021/03/26 06:59:15;;;;;;;4.90;4.50;;;20.10;45.60;;;;;;5001302;28;20509;-70
2021/03/26 07:01:50;;;;;;;4.63;4.20;;;20.10;45.60;;;;;;4975149;28;20473;-69
2021/03/26 07:04:54;;;;;;;4.70;4.40;;;20.10;45.70;;;;;;4976208;28;20480;-69
2021/03/26 07:07:50;;;;;;;5.03;4.53;;;20.10;45.70;;;;;;4878614;29;20481;-70
2021/03/26 07:10:22;;;;;;;5.20;4.80;;;20.10;45.60;;;;;;4949632;28;20508;-69
2021/03/26 07:13:31;;;;;;;4.97;3.87;;;20.10;45.80;;;;;;4972832;28;20478;-69
2021/03/26 07:16:03;;;;;;;5.10;4.30;;;20.10;45.70;;;;;;4966121;28;20538;-70
2021/03/26 07:18:44;;;;;;;5.00;4.57;;;20.20;45.60;;;;;;4977956;28;20489;-69
2021/03/26 07:21:12;;;;;;;4.80;4.40;;;20.20;45.60;;;;;;4976283;28;20492;-70
2021/03/26 07:24:10;;;;;;;4.60;4.17;;;20.20;45.50;;;;;;4975919;28;20927;-70
2021/03/26 07:26:50;;;;;;;4.40;3.97;;;20.30;45.60;;;;;;4975734;28;21398;-70
2021/03/26 07:29:30;;;;;;;3.90;3.60;;;20.30;45.60;;;;;;4964690;28;20477;-70
2021/03/26 07:32:26;;;;;;;5.00;4.50;;;20.30;45.70;;;;;;4975218;28;21526;-69
2021/03/26 07:35:31;;;;;;;6.57;4.87;;;20.20;45.60;;;;;;4965715;28;20569;-70
2021/03/26 07:38:10;;;;;;;4.83;4.50;;;20.20;45.70;;;;;;4979227;28;20481;-70
2021/03/26 07:40:41;;;;;;;4.40;4.00;;;20.20;45.80;;;;;;4975543;28;21024;-70
2021/03/26 07:43:32;;;;;;;4.53;4.23;;;20.10;45.90;;;;;;4972617;28;20494;-72
2021/03/26 07:46:12;;;;;;;4.47;4.17;;;20.10;45.90;;;;;;4979548;28;20555;-70
2021/03/26 07:48:57;;;;;;;4.67;4.30;;;20.10;45.90;;;;;;4977032;28;20500;-70
2021/03/26 07:51:25;;;;;;;5.37;4.87;;;20.10;46.00;;;;;;4978262;28;20531;-68
2021/03/26 07:54:17;;;;;;;5.17;4.70;;;20.10;46.00;;;;;;4968270;28;21032;-69
2021/03/26 07:56:55;;;;;;;5.50;4.40;;;20.10;46.20;;;;;;4973698;28;20481;-70
2021/03/26 07:59:45;;;;;;;5.50;4.30;;;20.10;46.20;;;;;;4973770;28;20473;-70
2021/03/26 08:02:23;;;;;;;5.33;4.43;;;20.00;46.30;;;;;;4978811;28;20473;-71
2021/03/26 08:04:52;;;;;;;3.87;3.50;;;20.00;46.30;;;;;;4978191;28;20511;-69
2021/03/26 08:07:47;;;;;;;5.03;4.63;;;20.00;46.30;;;;;;4975578;28;20508;-67
2021/03/26 08:10:25;;;;;;;4.67;4.37;;;20.00;46.40;;;;;;4973976;28;21604;-69
2021/03/26 08:13:02;;;;;;;6.10;5.37;;;20.00;46.50;;;;;;4969402;28;20500;-69
2021/03/26 08:15:40;;;;;;;8.43;4.40;;;20.00;46.50;;;;;;4973427;28;20495;-69
2021/03/26 08:18:18;;;;;;;4.00;3.70;;;20.10;46.20;;;;;;4976426;28;20480;-69
2021/03/26 08:20:51;;;;;;;7.10;3.90;;;20.10;46.10;;;;;;4946448;28;20489;-69
2021/03/26 08:23:25;;;;;;;4.20;3.90;;;20.20;46.10;;;;;;4969061;28;20528;-69
2021/03/26 08:25:55;;;;;;;5.53;3.90;;;20.20;46.00;;;;;;4973761;28;20477;-70
2021/03/26 08:28:43;;;;;;;4.00;3.73;;;20.30;45.90;;;;;;4975831;28;20836;-69
2021/03/26 08:31:42;;;;;;;5.57;5.00;;;20.30;46.00;;;;;;4970275;28;20485;-70
2021/03/26 08:34:22;;;;;;;4.50;4.20;;;20.30;45.80;;;;;;4971182;28;20516;-70
2021/03/26 08:36:50;;;;;;;4.77;4.40;;;20.30;45.80;;;;;;4948060;28;20859;-68
2021/03/26 08:39:43;;;;;;;5.03;3.97;;;20.30;45.90;;;;;;4966563;28;20486;-70
2021/03/26 08:42:24;;;;;;;5.57;4.40;;;20.30;45.90;;;;;;4912948;28;20574;-69
2021/03/26 08:44:54;;;;;;;4.20;3.90;;;20.20;46.00;;;;;;4954457;28;20488;-70
2021/03/26 08:47:26;;;;;;;5.50;4.90;;;20.20;46.10;;;;;;4972460;28;20543;-68
2021/03/26 08:49:54;;;;;;;4.70;4.10;;;20.20;46.10;;;;;;4976435;28;20489;-70
2021/03/26 08:52:37;;;;;;;3.83;3.60;;;20.10;46.10;;;;;;4975712;28;20485;-70
2021/03/26 08:55:33;;;;;;;5.07;4.67;;;20.10;46.10;;;;;;4972075;28;20504;-69
2021/03/26 08:58:07;;;;;;;3.73;3.40;;;20.10;46.10;;;;;;4977297;28;20530;-69
2021/03/26 09:00:42;;;;;;;4.40;4.00;;;20.10;46.40;;;;;;4961926;28;20981;-69
2021/03/26 09:03:22;;;;;;;3.80;3.47;;;20.10;46.40;;;;;;4970709;28;20501;-69
2021/03/26 09:05:58;;;;;;;3.63;3.43;;;20.10;46.40;;;;;;4968183;28;20485;-68
2021/03/26 09:08:59;;;;;;;3.80;3.60;;;20.10;46.30;;;;;;4976163;28;20577;-70
2021/03/26 09:12:01;;;;;;;4.33;4.10;;;20.10;46.30;;;;;;4974188;28;20493;-70
2021/03/26 09:14:59;;;;;;;4.27;3.90;;;20.00;46.20;;;;;;4931299;28;21738;-70
2021/03/26 09:17:29;;;;;;;5.00;4.10;;;20.00;46.20;;;;;;4920761;28;20486;-70
2021/03/26 09:19:58;;;;;;;3.60;3.40;;;20.10;46.30;;;;;;4966802;28;21119;-70
2021/03/26 09:23:06;;;;;;;2.97;2.77;;;20.10;46.20;;;;;;4973502;28;21008;-69
2021/03/26 09:25:41;;;;;;;3.33;3.10;;;20.10;46.00;;;;;;4953681;28;20498;-70
2021/03/26 09:28:09;;;;;;;3.27;2.90;;;20.10;46.00;;;;;;4964775;28;20507;-70
2021/03/26 09:30:36;;;;;;;3.60;3.40;;;20.10;45.80;;;;;;4972254;28;20490;-70
2021/03/26 09:33:11;;;;;;;4.30;3.90;;;20.10;45.80;;;;;;4961182;28;20551;-69
2021/03/26 09:35:42;;;;;;;6.03;3.90;;;20.20;45.80;;;;;;4974326;28;20490;-70
2021/03/26 09:38:20;;;;;;;4.27;3.10;;;20.10;45.70;;;;;;4961792;28;20527;-69
2021/03/26 09:40:52;;;;;;;3.20;2.70;;;20.10;45.90;;;;;;4974822;28;20485;-69
2021/03/26 09:43:21;;;;;;;3.77;3.23;;;20.10;45.80;;;;;;4941270;28;21649;-69
2021/03/26 09:45:51;;;;;;;3.57;3.27;;;20.10;45.90;;;;;;4974596;28;20501;-69
2021/03/26 09:48:53;;;;;;;4.03;3.40;;;20.10;45.90;;;;;;4970842;28;20540;-69
2021/03/26 09:51:53;;;;;;;3.27;3.07;;;20.00;45.80;;;;;;4943049;28;20885;-70
2021/03/26 09:54:30;;;;;;;2.97;2.67;;;20.00;45.90;;;;;;4913610;28;20535;-71
2021/03/26 09:57:25;;;;;;;3.40;3.20;;;20.00;46.00;;;;;;4963016;28;20541;-70
2021/03/26 10:00:00;;;;;;;2.67;2.57;;;20.10;45.80;;;;;;4960812;28;21093;-70
2021/03/26 10:02:30;;;;;;;3.00;2.80;;;20.10;45.70;;;;;;4960951;28;21053;-70
2021/03/26 10:05:03;;;;;;;5.10;2.57;;;20.20;45.70;;;;;;4979743;28;20548;-70
2021/03/26 10:07:36;;;;;;;3.07;2.60;;;20.20;45.60;;;;;;4962843;28;20491;-70
2021/03/26 10:12:49;;;;;;;3.07;2.80;;;20.10;45.50;;;;;;4941403;28;20505;-70
2021/03/26 10:15:21;;;;;;;2.60;2.40;;;20.10;45.40;;;;;;4971233;28;20988;-70
2021/03/26 10:17:54;;;;;;;3.60;3.10;;;20.10;45.50;;;;;;4964498;28;20539;-68
2021/03/26 10:20:26;;;;;;;2.70;2.60;;;20.10;45.60;;;;;;4954187;28;20497;-70
2021/03/26 10:23:16;;;;;;;3.50;3.20;;;20.10;45.70;;;;;;4972409;28;20489;-70
2021/03/26 10:25:46;;;;;;;2.93;2.53;;;20.00;45.60;;;;;;4951714;28;20536;-70
2021/03/26 10:28:21;;;;;;;2.50;2.30;;;20.00;45.50;;;;;;4963617;28;21476;-69
2021/03/26 10:30:47;;;;;;;3.70;3.43;;;20.00;45.60;;;;;;4944978;28;20541;-69
2021/03/26 10:33:15;;;;;;;3.10;2.80;;;20.00;45.60;;;;;;4973255;28;20530;-69
2021/03/26 10:35:51;;;;;;;2.50;2.40;;;20.10;45.70;;;;;;4972957;28;20488;-70
2021/03/26 10:38:21;;;;;;;2.30;1.90;;;20.10;45.80;;;;;;4969921;28;20481;-69
2021/03/26 10:40:50;;;;;;;1.97;1.83;;;20.10;45.70;;;;;;4944909;28;21573;-69
2021/03/26 10:43:18;;;;;;;2.80;2.60;;;20.10;45.60;;;;;;4969289;28;21451;-70
2021/03/26 10:45:53;;;;;;;2.37;2.27;;;20.10;45.50;;;;;;4956040;28;20477;-70
2021/03/26 10:48:22;;;;;;;2.57;2.37;;;20.10;45.40;;;;;;4974895;28;20479;-70
2021/03/26 10:51:09;;;;;;;2.27;2.10;;;20.10;45.40;;;;;;4952139;28;20478;-70
2021/03/26 10:53:38;;;;;;;3.17;2.90;;;20.10;45.30;;;;;;4977047;28;20493;-70
2021/03/26 10:56:07;;;;;;;2.37;2.23;;;20.10;45.20;;;;;;4974166;28;20485;-70
2021/03/26 10:58:34;;;;;;;2.17;2.03;;;20.10;45.30;;;;;;4980123;28;20481;-70
2021/03/26 11:01:04;;;;;;;2.27;2.17;;;20.10;45.50;;;;;;4978561;28;20481;-68
2021/03/26 11:03:31;;;;;;;1.87;1.77;;;20.10;45.40;;;;;;4975655;28;20585;-69
2021/03/26 11:05:59;;;;;;;3.97;1.90;;;20.00;45.40;;;;;;4981904;28;20523;-69
2021/03/26 11:08:48;;;;;;;2.23;2.13;;;20.00;45.40;;;;;;4976848;28;20525;-68
2021/03/26 11:11:31;;;;;;;1.60;1.50;;;20.00;45.50;;;;;;4978508;28;20481;-70
2021/03/26 11:14:34;;;;;;;2.23;2.13;;;20.00;45.50;;;;;;4970379;28;20596;-69
2021/03/26 11:17:22;;;;;;;3.80;2.20;;;20.00;45.50;;;;;;4985851;28;20502;-70
2021/03/26 11:20:07;;;;;;;2.07;1.87;;;20.00;45.50;;;;;;4977098;28;20477;-69
2021/03/26 11:22:34;;;;;;;2.13;1.93;;;20.00;45.60;;;;;;4983473;28;20496;-69
2021/03/26 11:25:03;;;;;;;2.37;2.27;;;19.90;45.40;;;;;;4975214;28;20489;-69
2021/03/26 11:27:32;;;;;;;1.70;1.50;;;19.90;45.50;;;;;;4974572;28;20491;-69
2021/03/26 11:30:17;;;;;;;2.70;2.10;;;19.90;45.60;;;;;;4984144;28;20485;-70
2021/03/26 11:32:44;;;;;;;2.73;2.27;;;19.90;45.50;;;;;;4974357;28;20569;-69
2021/03/26 11:35:11;;;;;;;1.60;1.53;;;19.90;45.60;;;;;;4982955;28;20992;-70
2021/03/26 11:37:38;;;;;;;3.30;2.07;;;19.90;45.60;;;;;;4977179;28;21576;-69
2021/03/26 11:40:07;;;;;;;2.63;2.43;;;20.00;45.60;;;;;;4979116;28;20481;-69
2021/03/26 11:42:48;;;;;;;2.90;1.97;;;20.00;45.40;;;;;;4973217;28;20482;-69
2021/03/26 11:45:27;;;;;;;1.63;1.53;;;20.00;45.30;;;;;;4972566;28;21144;-70
2021/03/26 11:48:00;;;;;;;1.63;1.53;;;20.10;45.30;;;;;;4978376;28;20517;-69
2021/03/26 11:50:28;;;;;;;2.47;2.10;;;20.10;45.20;;;;;;4983166;28;20524;-69
2021/03/26 11:53:21;;;;;;;2.90;2.20;;;20.10;45.10;;;;;;4981201;28;20491;-70
2021/03/26 11:56:03;;;;;;;2.00;1.90;;;20.10;45.10;;;;;;4974973;28;20971;-69
2021/03/26 11:58:32;;;;;;;1.80;1.70;;;20.10;45.20;;;;;;4976248;28;20481;-69
2021/03/26 12:01:04;;;;;;;1.70;1.60;;;20.10;45.10;;;;;;4975346;28;20485;-70
2021/03/26 12:03:33;;;;;;;1.87;1.70;;;20.10;45.10;;;;;;4963610;28;20937;-69
2021/03/26 12:06:08;;;;;;;1.67;1.57;;;20.10;45.00;;;;;;4980035;28;20535;-70
2021/03/26 12:08:39;;;;;;;1.53;1.37;;;20.20;45.10;;;;;;4976333;28;20490;-69
2021/03/26 12:11:07;;;;;;;1.93;1.83;;;20.20;45.00;;;;;;4973062;28;20485;-70
2021/03/26 12:13:35;;;;;;;2.40;2.20;;;20.20;45.70;;;;;;4968455;28;20494;-68
2021/03/26 12:16:06;;;;;;;4.07;2.10;;;20.10;45.00;;;;;;4975998;28;20571;-69
2021/03/26 12:18:35;;;;;;;2.27;2.00;;;20.10;45.10;;;;;;4975054;28;20507;-68
2021/03/26 12:21:10;;;;;;;1.90;1.80;;;20.10;45.00;;;;;;4984282;28;20584;-68
2021/03/26 12:23:43;;;;;;;2.27;2.17;;;20.10;45.10;;;;;;4978216;28;20485;-69
2021/03/26 12:26:17;;;;;;;2.10;2.00;;;20.10;45.10;;;;;;4984042;28;20478;-69
2021/03/26 12:29:04;;;;;;;1.77;1.67;;;20.10;45.20;;;;;;4974796;28;20482;-69
2021/03/26 12:31:37;;;;;;;5.27;2.20;;;20.10;45.10;;;;;;4973905;28;20709;-69
2021/03/26 12:34:05;;;;;;;2.57;1.67;;;20.00;45.10;;;;;;4981216;28;20503;-69
2021/03/26 12:36:33;;;;;;;2.03;1.93;;;20.00;45.10;;;;;;4976905;28;20493;-70
2021/03/26 12:39:01;;;;;;;2.37;2.20;;;20.00;45.20;;;;;;4983321;28;20476;-69
2021/03/26 12:41:34;;;;;;;1.70;1.53;;;20.00;45.20;;;;;;4978418;28;20541;-70
2021/03/26 12:44:03;;;;;;;1.60;1.53;;;20.00;45.40;;;;;;4955838;28;20488;-68
2021/03/26 12:47:02;;;;;;;1.50;1.40;;;20.00;45.20;;;;;;4975460;28;20549;-70
2021/03/26 12:49:30;;;;;;;1.63;1.50;;;20.00;45.30;;;;;;4973877;28;20555;-70
2021/03/26 12:52:00;;;;;;;1.60;1.50;;;20.00;45.20;;;;;;4968571;28;20513;-70
2021/03/26 12:54:30;;;;;;;1.50;1.40;;;20.00;45.00;;;;;;4976003;28;20496;-70
2021/03/26 12:57:01;;;;;;;1.20;1.20;;;20.10;44.90;;;;;;4977536;28;21275;-69
2021/03/26 12:59:31;;;;;;;2.30;1.70;;;20.20;44.80;;;;;;4977642;28;20524;-70
2021/03/26 13:02:00;;;;;;;1.50;1.50;;;20.20;44.70;;;;;;4970918;28;20479;-69
2021/03/26 13:04:39;;;;;;;1.70;1.27;;;20.30;44.80;;;;;;4978143;28;20513;-69
2021/03/26 13:07:18;;;;;;;1.50;1.40;;;20.30;44.70;;;;;;4977872;28;20480;-71
2021/03/26 13:09:50;;;;;;;1.50;1.30;;;20.30;44.60;;;;;;4979985;28;20474;-69
2021/03/26 13:12:20;;;;;;;1.33;1.33;;;20.30;44.70;;;;;;4973616;28;20513;-70
2021/03/26 13:14:49;;;;;;;2.13;2.03;;;20.30;44.60;;;;;;4969973;28;20482;-70
2021/03/26 13:17:17;;;;;;;1.67;1.53;;;20.30;45.60;;;;;;4973973;28;20489;-70
2021/03/26 13:19:43;;;;;;;1.60;1.50;;;20.30;44.80;;;;;;4964228;28;20510;-70
2021/03/26 13:22:18;;;;;;;1.43;1.33;;;20.20;44.70;;;;;;4979613;28;20492;-69
2021/03/26 13:24:52;;;;;;;2.00;1.90;;;20.20;44.70;;;;;;4973407;28;20879;-69
2021/03/26 13:27:44;;;;;;;2.00;1.90;;;20.20;44.80;;;;;;4975806;28;20485;-69